sensor_id;sensor_type;location;lat;lon;timestamp;P1;durP1;ratioP1;P2;durP2;ratioP2
10134;SDS011;5107;48.850;8.924;2023-03-26T00:01:09;3.13;;;2.00;;
10134;SDS011;5107;48.850;8.924;2023-03-26T00:03:40;2.53;;;1.73;;
10134;SDS011;5107;48.850;8.924;2023-03-26T00:06:12;3.17;;;1.60;;
10134;SDS011;5107;48.850;8.924;2023-03-26T00:08:42;2.57;;;1.30;;
10134;SDS011;5107;48.850;8.924;2023-03-26T00:11:12;3.13;;;1.70;;
10134;SDS011;5107;48.850;8.924;2023-03-26T00:13:42;3.47;;;1.63;;
10134;SDS011;5107;48.850;8.924;2023-03-26T00:16:11;3.73;;;1.80;;
10134;SDS011;5107;48.850;8.924;2023-03-26T00:18:40;5.83;;;2.30;;
10134;SDS011;5107;48.850;8.924;2023-03-26T00:21:10;4.67;;;2.00;;
10134;SDS011;5107;48.850;8.924;2023-03-26T00:23:39;8.03;;;1.97;;
10134;SDS011;5107;48.850;8.924;2023-03-26T00:26:07;2.97;;;1.67;;
10134;SDS011;5107;48.850;8.924;2023-03-26T00:28:37;3.53;;;1.77;;
10134;SDS011;5107;48.850;8.924;2023-03-26T00:31:07;6.63;;;1.80;;
10134;SDS011;5107;48.850;8.924;2023-03-26T00:33:36;6.80;;;2.00;;
10134;SDS011;5107;48.850;8.924;2023-03-26T00:36:06;5.77;;;2.30;;
10134;SDS011;5107;48.850;8.924;2023-03-26T00:38:38;6.73;;;1.80;;
10134;SDS011;5107;48.850;8.924;2023-03-26T00:41:07;5.07;;;1.83;;
10134;SDS011;5107;48.850;8.924;2023-03-26T00:43:43;4.77;;;1.80;;
10134;SDS011;5107;48.850;8.924;2023-03-26T00:46:12;6.17;;;1.80;;
10134;SDS011;5107;48.850;8.924;2023-03-26T00:48:41;8.53;;;2.00;;
10134;SDS011;5107;48.850;8.924;2023-03-26T00:51:09;5.40;;;1.47;;
10134;SDS011;5107;48.850;8.924;2023-03-26T00:53:39;4.67;;;1.37;;
10134;SDS011;5107;48.850;8.924;2023-03-26T00:56:08;5.20;;;1.30;;
10134;SDS011;5107;48.850;8.924;2023-03-26T00:58:36;5.17;;;1.60;;
10134;SDS011;5107;48.850;8.924;2023-03-26T01:01:07;4.47;;;1.80;;
10134;SDS011;5107;48.850;8.924;2023-03-26T01:03:37;6.10;;;1.90;;
10134;SDS011;5107;48.850;8.924;2023-03-26T01:06:06;5.33;;;1.97;;
10134;SDS011;5107;48.850;8.924;2023-03-26T01:08:37;6.57;;;1.63;;
10134;SDS011;5107;48.850;8.924;2023-03-26T01:11:08;7.20;;;2.07;;
10134;SDS011;5107;48.850;8.924;2023-03-26T01:13:42;6.10;;;1.50;;
10134;SDS011;5107;48.850;8.924;2023-03-26T01:16:21;5.60;;;1.77;;
10134;SDS011;5107;48.850;8.924;2023-03-26T01:18:54;3.23;;;1.60;;
10134;SDS011;5107;48.850;8.924;2023-03-26T01:21:24;3.60;;;1.30;;
10134;SDS011;5107;48.850;8.924;2023-03-26T01:23:57;2.67;;;1.50;;
10134;SDS011;5107;48.850;8.924;2023-03-26T01:26:30;6.07;;;2.07;;
10134;SDS011;5107;48.850;8.924;2023-03-26T01:29:21;5.47;;;1.70;;
10134;SDS011;5107;48.850;8.924;2023-03-26T01:32:01;4.23;;;1.70;;
10134;SDS011;5107;48.850;8.924;2023-03-26T01:34:41;2.20;;;1.37;;
10134;SDS011;5107;48.850;8.924;2023-03-26T01:37:19;2.87;;;1.63;;
10134;SDS011;5107;48.850;8.924;2023-03-26T01:39:53;6.07;;;1.80;;
10134;SDS011;5107;48.850;8.924;2023-03-26T01:42:32;3.57;;;1.50;;
10134;SDS011;5107;48.850;8.924;2023-03-26T01:45:08;5.63;;;1.90;;
10134;SDS011;5107;48.850;8.924;2023-03-26T01:47:41;2.70;;;1.60;;
10134;SDS011;5107;48.850;8.924;2023-03-26T01:50:10;3.30;;;1.33;;
10134;SDS011;5107;48.850;8.924;2023-03-26T01:52:38;6.03;;;1.80;;
10134;SDS011;5107;48.850;8.924;2023-03-26T01:55:07;4.30;;;1.50;;
10134;SDS011;5107;48.850;8.924;2023-03-26T01:57:39;5.47;;;1.60;;
10134;SDS011;5107;48.850;8.924;2023-03-26T02:00:22;3.03;;;1.50;;
10134;SDS011;5107;48.850;8.924;2023-03-26T02:02:57;3.87;;;1.47;;
10134;SDS011;5107;48.850;8.924;2023-03-26T02:05:43;6.50;;;1.73;;
10134;SDS011;5107;48.850;8.924;2023-03-26T02:08:19;5.63;;;1.90;;
10134;SDS011;5107;48.850;8.924;2023-03-26T02:11:01;4.00;;;1.43;;
10134;SDS011;5107;48.850;8.924;2023-03-26T02:13:35;5.03;;;1.60;;
10134;SDS011;5107;48.850;8.924;2023-03-26T02:16:04;5.53;;;1.70;;
10134;SDS011;5107;48.850;8.924;2023-03-26T02:18:38;3.83;;;1.57;;
10134;SDS011;5107;48.850;8.924;2023-03-26T02:21:07;6.70;;;1.80;;
10134;SDS011;5107;48.850;8.924;2023-03-26T02:23:39;4.30;;;1.67;;
10134;SDS011;5107;48.850;8.924;2023-03-26T02:26:13;6.40;;;1.83;;
10134;SDS011;5107;48.850;8.924;2023-03-26T02:28:54;2.87;;;1.50;;
10134;SDS011;5107;48.850;8.924;2023-03-26T02:31:22;5.83;;;1.73;;
10134;SDS011;5107;48.850;8.924;2023-03-26T02:33:50;4.10;;;1.80;;
10134;SDS011;5107;48.850;8.924;2023-03-26T02:36:18;2.23;;;1.67;;
10134;SDS011;5107;48.850;8.924;2023-03-26T02:38:47;3.87;;;1.93;;
10134;SDS011;5107;48.850;8.924;2023-03-26T02:41:16;3.27;;;1.70;;
10134;SDS011;5107;48.850;8.924;2023-03-26T02:43:53;6.70;;;1.97;;
10134;SDS011;5107;48.850;8.924;2023-03-26T02:46:24;6.73;;;2.00;;
10134;SDS011;5107;48.850;8.924;2023-03-26T02:49:16;2.83;;;1.40;;
10134;SDS011;5107;48.850;8.924;2023-03-26T02:51:44;5.57;;;1.80;;
10134;SDS011;5107;48.850;8.924;2023-03-26T02:54:24;5.40;;;1.83;;
10134;SDS011;5107;48.850;8.924;2023-03-26T02:57:11;6.27;;;1.50;;
10134;SDS011;5107;48.850;8.924;2023-03-26T02:59:57;4.37;;;1.77;;
10134;SDS011;5107;48.850;8.924;2023-03-26T03:02:36;5.63;;;1.90;;
10134;SDS011;5107;48.850;8.924;2023-03-26T03:05:29;5.80;;;1.77;;
10134;SDS011;5107;48.850;8.924;2023-03-26T03:08:17;4.97;;;1.77;;
10134;SDS011;5107;48.850;8.924;2023-03-26T03:11:00;2.93;;;1.57;;
10134;SDS011;5107;48.850;8.924;2023-03-26T03:13:49;4.90;;;1.97;;
10134;SDS011;5107;48.850;8.924;2023-03-26T03:16:21;5.63;;;2.03;;
10134;SDS011;5107;48.850;8.924;2023-03-26T03:18:48;6.50;;;1.63;;
10134;SDS011;5107;48.850;8.924;2023-03-26T03:21:22;4.07;;;1.77;;
10134;SDS011;5107;48.850;8.924;2023-03-26T03:23:51;4.13;;;1.87;;
10134;SDS011;5107;48.850;8.924;2023-03-26T03:26:19;2.87;;;1.70;;
10134;SDS011;5107;48.850;8.924;2023-03-26T03:28:54;8.50;;;1.87;;
10134;SDS011;5107;48.850;8.924;2023-03-26T03:31:23;10.53;;;1.90;;
10134;SDS011;5107;48.850;8.924;2023-03-26T03:33:55;4.40;;;1.90;;
10134;SDS011;5107;48.850;8.924;2023-03-26T03:36:23;8.47;;;1.80;;
10134;SDS011;5107;48.850;8.924;2023-03-26T03:39:06;1.43;;;1.33;;
10134;SDS011;5107;48.850;8.924;2023-03-26T03:41:35;4.47;;;1.93;;
10134;SDS011;5107;48.850;8.924;2023-03-26T03:44:06;7.23;;;1.70;;
10134;SDS011;5107;48.850;8.924;2023-03-26T03:46:33;6.33;;;1.63;;
10134;SDS011;5107;48.850;8.924;2023-03-26T03:49:01;3.10;;;1.70;;
10134;SDS011;5107;48.850;8.924;2023-03-26T03:51:35;3.63;;;1.70;;
10134;SDS011;5107;48.850;8.924;2023-03-26T03:54:10;6.13;;;1.80;;
10134;SDS011;5107;48.850;8.924;2023-03-26T03:56:43;5.43;;;1.50;;
10134;SDS011;5107;48.850;8.924;2023-03-26T03:59:31;4.80;;;1.70;;
10134;SDS011;5107;48.850;8.924;2023-03-26T04:02:01;7.20;;;1.60;;
10134;SDS011;5107;48.850;8.924;2023-03-26T04:04:45;4.00;;;1.60;;
10134;SDS011;5107;48.850;8.924;2023-03-26T04:07:16;5.70;;;1.77;;
10134;SDS011;5107;48.850;8.924;2023-03-26T04:10:01;6.80;;;2.10;;
10134;SDS011;5107;48.850;8.924;2023-03-26T04:12:48;3.47;;;1.70;;
10134;SDS011;5107;48.850;8.924;2023-03-26T04:15:19;4.70;;;1.70;;
10134;SDS011;5107;48.850;8.924;2023-03-26T04:17:46;5.13;;;1.73;;
10134;SDS011;5107;48.850;8.924;2023-03-26T04:20:16;3.20;;;1.80;;
10134;SDS011;5107;48.850;8.924;2023-03-26T04:22:45;4.37;;;1.50;;
10134;SDS011;5107;48.850;8.924;2023-03-26T04:25:15;8.40;;;2.07;;
10134;SDS011;5107;48.850;8.924;2023-03-26T04:27:45;3.57;;;1.77;;
10134;SDS011;5107;48.850;8.924;2023-03-26T04:30:33;5.97;;;1.80;;
10134;SDS011;5107;48.850;8.924;2023-03-26T04:33:20;6.23;;;2.47;;
10134;SDS011;5107;48.850;8.924;2023-03-26T04:35:49;5.13;;;1.97;;
10134;SDS011;5107;48.850;8.924;2023-03-26T04:38:18;4.77;;;2.27;;
10134;SDS011;5107;48.850;8.924;2023-03-26T04:40:50;7.17;;;2.47;;
10134;SDS011;5107;48.850;8.924;2023-03-26T04:43:52;7.00;;;4.00;;
10134;SDS011;5107;48.850;8.924;2023-03-26T04:46:39;6.73;;;3.07;;
10134;SDS011;5107;48.850;8.924;2023-03-26T04:49:27;4.57;;;2.20;;
10134;SDS011;5107;48.850;8.924;2023-03-26T04:51:55;5.57;;;1.60;;
10134;SDS011;5107;48.850;8.924;2023-03-26T04:54:43;4.80;;;2.00;;
10134;SDS011;5107;48.850;8.924;2023-03-26T04:57:14;5.60;;;2.27;;
10134;SDS011;5107;48.850;8.924;2023-03-26T04:59:52;5.47;;;1.80;;
10134;SDS011;5107;48.850;8.924;2023-03-26T05:02:20;6.70;;;2.20;;
10134;SDS011;5107;48.850;8.924;2023-03-26T05:04:51;4.93;;;1.87;;
10134;SDS011;5107;48.850;8.924;2023-03-26T05:07:22;4.90;;;2.20;;
10134;SDS011;5107;48.850;8.924;2023-03-26T05:09:54;10.10;;;2.23;;
10134;SDS011;5107;48.850;8.924;2023-03-26T05:12:31;5.70;;;2.07;;
10134;SDS011;5107;48.850;8.924;2023-03-26T05:15:03;4.33;;;1.93;;
10134;SDS011;5107;48.850;8.924;2023-03-26T05:18:06;8.80;;;3.03;;
10134;SDS011;5107;48.850;8.924;2023-03-26T05:20:37;6.30;;;2.13;;
10134;SDS011;5107;48.850;8.924;2023-03-26T05:23:07;5.40;;;2.30;;
10134;SDS011;5107;48.850;8.924;2023-03-26T05:25:37;5.53;;;2.30;;
10134;SDS011;5107;48.850;8.924;2023-03-26T05:28:13;6.47;;;2.40;;
10134;SDS011;5107;48.850;8.924;2023-03-26T05:30:49;5.37;;;1.80;;
10134;SDS011;5107;48.850;8.924;2023-03-26T05:33:20;5.53;;;2.40;;
10134;SDS011;5107;48.850;8.924;2023-03-26T05:36:00;4.87;;;2.00;;
10134;SDS011;5107;48.850;8.924;2023-03-26T05:38:31;4.70;;;1.97;;
10134;SDS011;5107;48.850;8.924;2023-03-26T05:40:59;7.40;;;2.10;;
10134;SDS011;5107;48.850;8.924;2023-03-26T05:43:29;4.03;;;2.00;;
10134;SDS011;5107;48.850;8.924;2023-03-26T05:46:05;7.07;;;1.93;;
10134;SDS011;5107;48.850;8.924;2023-03-26T05:48:35;5.70;;;2.40;;
10134;SDS011;5107;48.850;8.924;2023-03-26T05:51:03;6.67;;;2.60;;
10134;SDS011;5107;48.850;8.924;2023-03-26T05:53:32;5.73;;;2.20;;
10134;SDS011;5107;48.850;8.924;2023-03-26T05:56:18;7.03;;;2.20;;
10134;SDS011;5107;48.850;8.924;2023-03-26T05:59:05;8.73;;;2.33;;
10134;SDS011;5107;48.850;8.924;2023-03-26T06:01:45;6.43;;;2.10;;
10134;SDS011;5107;48.850;8.924;2023-03-26T06:04:25;3.90;;;1.80;;
10134;SDS011;5107;48.850;8.924;2023-03-26T06:07:16;10.60;;;1.93;;
10134;SDS011;5107;48.850;8.924;2023-03-26T06:09:53;4.27;;;2.03;;
10134;SDS011;5107;48.850;8.924;2023-03-26T06:12:20;4.53;;;1.73;;
10134;SDS011;5107;48.850;8.924;2023-03-26T06:14:48;9.30;;;2.07;;
10134;SDS011;5107;48.850;8.924;2023-03-26T06:17:20;4.50;;;2.00;;
10134;SDS011;5107;48.850;8.924;2023-03-26T06:20:08;5.80;;;1.70;;
10134;SDS011;5107;48.850;8.924;2023-03-26T06:22:40;3.70;;;1.90;;
10134;SDS011;5107;48.850;8.924;2023-03-26T06:25:16;2.70;;;1.63;;
10134;SDS011;5107;48.850;8.924;2023-03-26T06:28:03;3.80;;;2.10;;
10134;SDS011;5107;48.850;8.924;2023-03-26T06:30:49;5.03;;;2.30;;
10134;SDS011;5107;48.850;8.924;2023-03-26T06:33:29;4.87;;;1.97;;
10134;SDS011;5107;48.850;8.924;2023-03-26T06:35:59;4.00;;;1.97;;
10134;SDS011;5107;48.850;8.924;2023-03-26T06:38:26;7.47;;;2.23;;
10134;SDS011;5107;48.850;8.924;2023-03-26T06:40:57;4.13;;;1.87;;
10134;SDS011;5107;48.850;8.924;2023-03-26T06:43:30;5.37;;;1.90;;
10134;SDS011;5107;48.850;8.924;2023-03-26T06:46:20;4.17;;;1.53;;
10134;SDS011;5107;48.850;8.924;2023-03-26T06:49:06;4.33;;;2.10;;
10134;SDS011;5107;48.850;8.924;2023-03-26T06:51:53;2.33;;;1.73;;
10134;SDS011;5107;48.850;8.924;2023-03-26T06:54:38;5.23;;;2.10;;
10134;SDS011;5107;48.850;8.924;2023-03-26T06:57:22;6.07;;;1.57;;
10134;SDS011;5107;48.850;8.924;2023-03-26T07:00:16;3.60;;;1.90;;
10134;SDS011;5107;48.850;8.924;2023-03-26T07:03:02;3.10;;;1.50;;
10134;SDS011;5107;48.850;8.924;2023-03-26T07:05:48;2.87;;;1.57;;
10134;SDS011;5107;48.850;8.924;2023-03-26T07:08:35;7.77;;;2.80;;
10134;SDS011;5107;48.850;8.924;2023-03-26T07:11:21;7.30;;;2.67;;
10134;SDS011;5107;48.850;8.924;2023-03-26T07:14:09;8.27;;;4.33;;
10134;SDS011;5107;48.850;8.924;2023-03-26T07:16:57;4.80;;;1.77;;
10134;SDS011;5107;48.850;8.924;2023-03-26T07:19:35;4.37;;;2.23;;
10134;SDS011;5107;48.850;8.924;2023-03-26T07:22:02;6.93;;;2.23;;
10134;SDS011;5107;48.850;8.924;2023-03-26T07:24:58;6.03;;;2.97;;
10134;SDS011;5107;48.850;8.924;2023-03-26T07:27:55;6.77;;;2.80;;
10134;SDS011;5107;48.850;8.924;2023-03-26T07:31:14;4.80;;;1.90;;
10134;SDS011;5107;48.850;8.924;2023-03-26T07:34:33;6.30;;;2.93;;
10134;SDS011;5107;48.850;8.924;2023-03-26T07:37:40;6.80;;;3.10;;
10134;SDS011;5107;48.850;8.924;2023-03-26T07:40:42;3.97;;;2.40;;
10134;SDS011;5107;48.850;8.924;2023-03-26T07:43:46;5.27;;;2.00;;
10134;SDS011;5107;48.850;8.924;2023-03-26T07:46:55;9.37;;;4.07;;
10134;SDS011;5107;48.850;8.924;2023-03-26T07:49:40;3.97;;;2.30;;
10134;SDS011;5107;48.850;8.924;2023-03-26T07:52:10;6.67;;;2.20;;
10134;SDS011;5107;48.850;8.924;2023-03-26T07:55:17;2.93;;;1.93;;
10134;SDS011;5107;48.850;8.924;2023-03-26T07:58:07;5.60;;;2.53;;
10134;SDS011;5107;48.850;8.924;2023-03-26T08:01:14;4.00;;;2.10;;
10134;SDS011;5107;48.850;8.924;2023-03-26T08:03:57;5.23;;;2.20;;
10134;SDS011;5107;48.850;8.924;2023-03-26T08:06:58;6.53;;;2.47;;
10134;SDS011;5107;48.850;8.924;2023-03-26T08:10:05;7.70;;;2.27;;
10134;SDS011;5107;48.850;8.924;2023-03-26T08:13:02;4.53;;;2.10;;
10134;SDS011;5107;48.850;8.924;2023-03-26T08:15:44;6.27;;;1.77;;
10134;SDS011;5107;48.850;8.924;2023-03-26T08:18:24;3.30;;;1.70;;
10134;SDS011;5107;48.850;8.924;2023-03-26T08:21:03;4.50;;;2.10;;
10134;SDS011;5107;48.850;8.924;2023-03-26T08:23:39;6.60;;;2.27;;
10134;SDS011;5107;48.850;8.924;2023-03-26T08:26:16;5.37;;;2.87;;
10134;SDS011;5107;48.850;8.924;2023-03-26T08:28:55;18.40;;;9.27;;
10134;SDS011;5107;48.850;8.924;2023-03-26T08:31:33;15.17;;;8.23;;
10134;SDS011;5107;48.850;8.924;2023-03-26T08:34:03;10.33;;;4.63;;
10134;SDS011;5107;48.850;8.924;2023-03-26T08:36:31;13.77;;;7.00;;
10134;SDS011;5107;48.850;8.924;2023-03-26T08:38:58;21.27;;;9.43;;
10134;SDS011;5107;48.850;8.924;2023-03-26T08:41:35;31.00;;;12.87;;
10134;SDS011;5107;48.850;8.924;2023-03-26T08:47:59;9.50;;;4.17;;
10134;SDS011;5107;48.850;8.924;2023-03-26T08:51:21;7.20;;;2.63;;
10134;SDS011;5107;48.850;8.924;2023-03-26T08:57:45;6.67;;;3.43;;
10134;SDS011;5107;48.850;8.924;2023-03-26T09:01:03;7.40;;;4.07;;
10134;SDS011;5107;48.850;8.924;2023-03-26T09:04:14;9.63;;;3.87;;
10134;SDS011;5107;48.850;8.924;2023-03-26T09:07:19;8.27;;;3.07;;
10134;SDS011;5107;48.850;8.924;2023-03-26T09:13:28;9.10;;;3.33;;
10134;SDS011;5107;48.850;8.924;2023-03-26T09:26:58;4.80;;;2.30;;
10134;SDS011;5107;48.850;8.924;2023-03-26T09:36:21;3.60;;;2.07;;
10134;SDS011;5107;48.850;8.924;2023-03-26T09:39:08;3.50;;;2.30;;
10134;SDS011;5107;48.850;8.924;2023-03-26T09:41:43;8.90;;;2.67;;
10134;SDS011;5107;48.850;8.924;2023-03-26T09:44:37;5.43;;;2.20;;
10134;SDS011;5107;48.850;8.924;2023-03-26T09:47:47;4.23;;;2.40;;
10134;SDS011;5107;48.850;8.924;2023-03-26T09:50:54;4.13;;;2.30;;
10134;SDS011;5107;48.850;8.924;2023-03-26T09:53:43;7.00;;;2.67;;
10134;SDS011;5107;48.850;8.924;2023-03-26T09:56:29;5.00;;;2.23;;
10134;SDS011;5107;48.850;8.924;2023-03-26T09:59:21;2.97;;;1.70;;
10134;SDS011;5107;48.850;8.924;2023-03-26T10:02:21;3.63;;;2.00;;
10134;SDS011;5107;48.850;8.924;2023-03-26T10:05:18;4.57;;;2.10;;
10134;SDS011;5107;48.850;8.924;2023-03-26T10:08:26;3.13;;;1.70;;
10134;SDS011;5107;48.850;8.924;2023-03-26T10:11:10;4.13;;;1.23;;
10134;SDS011;5107;48.850;8.924;2023-03-26T10:13:51;2.77;;;1.30;;
10134;SDS011;5107;48.850;8.924;2023-03-26T10:16:31;1.47;;;0.97;;
10134;SDS011;5107;48.850;8.924;2023-03-26T10:19:18;1.70;;;1.00;;
10134;SDS011;5107;48.850;8.924;2023-03-26T10:22:01;1.70;;;1.00;;
10134;SDS011;5107;48.850;8.924;2023-03-26T10:24:50;2.50;;;0.90;;
10134;SDS011;5107;48.850;8.924;2023-03-26T10:27:38;3.77;;;0.93;;
10134;SDS011;5107;48.850;8.924;2023-03-26T10:33:27;1.63;;;0.90;;
10134;SDS011;5107;48.850;8.924;2023-03-26T10:36:11;1.07;;;0.70;;
10134;SDS011;5107;48.850;8.924;2023-03-26T10:41:57;1.47;;;1.10;;
10134;SDS011;5107;48.850;8.924;2023-03-26T10:44:38;2.97;;;0.90;;
